Time;durP1;ratioP1;P1;durP2;ratioP2;P2;SDS_P1;SDS_P2;PMS_P1;PMS_P2;Temp;Humidity;BMP_temperature;BMP_pressure;BME280_temperature;BME280_humidity;BME280_pressure;Samples;Min_cycle;Max_cycle;Signal;HPM_P1;HPM_P2
2021/10/15 00:01:10;;;;;;;;;;;;;;;13.55;100.00;99167.84;4948831;28;19922;-64
2021/10/15 00:03:35;;;;;;;;;;;;;;;13.85;100.00;99169.22;4950802;28;20375;-64
2021/10/15 00:06:01;;;;;;;;;;;;;;;13.93;100.00;99161.94;4956113;28;20294;-64
2021/10/15 00:08:26;;;;;;;;;;;;;;;13.83;100.00;99160.66;4945182;28;19960;-64
2021/10/15 00:10:52;;;;;;;;;;;;;;;13.93;100.00;99162.78;4953670;28;19949;-64
2021/10/15 00:13:17;;;;;;;;;;;;;;;13.55;100.00;99165.25;4951252;28;19922;-64
2021/10/15 00:15:42;;;;;;;;;;;;;;;13.59;100.00;99158.19;4944008;28;20404;-64
2021/10/15 00:18:08;;;;;;;;;;;;;;;14.00;100.00;99156.44;4950793;28;19914;-65
2021/10/15 00:20:33;;;;;;;;;;;;;;;13.49;100.00;99156.91;4960384;28;19941;-65
2021/10/15 00:22:58;;;;;;;;;;;;;;;13.74;100.00;99152.38;4943307;28;20192;-63
2021/10/15 00:25:24;;;;;;;;;;;;;;;13.36;100.00;99152.25;4939318;28;19927;-63
2021/10/15 00:27:49;;;;;;;;;;;;;;;13.68;100.00;99144.88;4923427;28;20291;-64
2021/10/15 00:30:14;;;;;;;;;;;;;;;13.98;100.00;99141.88;4937123;28;19929;-64
2021/10/15 00:32:40;;;;;;;;;;;;;;;13.36;100.00;99141.91;4933508;28;19919;-67
2021/10/15 00:35:05;;;;;;;;;;;;;;;14.03;100.00;99147.72;4930008;28;19928;-67
2021/10/15 00:37:31;;;;;;;;;;;;;;;13.91;100.00;99137.88;4940862;28;19922;-67
2021/10/15 00:39:56;;;;;;;;;;;;;;;13.70;100.00;99131.88;4931404;28;19968;-67
2021/10/15 00:42:22;;;;;;;;;;;;;;;13.73;100.00;99129.13;4927101;28;19922;-67
2021/10/15 00:44:47;;;;;;;;;;;;;;;13.45;100.00;99126.88;4933012;28;20035;-67
2021/10/15 00:47:13;;;;;;;;;;;;;;;13.47;100.00;99117.31;4931336;28;19918;-67
2021/10/15 00:49:38;;;;;;;;;;;;;;;13.36;100.00;99116.03;4904448;28;19922;-67
2021/10/15 00:52:05;;;;;;;;;;;;;;;13.93;100.00;99115.34;4933087;28;20109;-67
2021/10/15 00:54:30;;;;;;;;;;;;;;;13.83;100.00;99112.31;4926861;28;19927;-68
2021/10/15 00:56:56;;;;;;;;;;;;;;;13.58;100.00;99110.78;4936753;28;19926;-68
2021/10/15 00:59:21;;;;;;;;;;;;;;;13.64;100.00;99109.69;4934237;28;20051;-68
2021/10/15 01:01:47;;;;;;;;;;;;;;;13.91;100.00;99102.47;4945484;28;19926;-67
2021/10/15 01:04:13;;;;;;;;;;;;;;;13.49;100.00;99094.81;4932600;28;20025;-66
2021/10/15 01:06:38;;;;;;;;;;;;;;;13.64;100.00;99093.31;4938607;28;19926;-66
2021/10/15 01:09:04;;;;;;;;;;;;;;;13.64;100.00;99083.81;4904632;28;20384;-66
2021/10/15 01:11:30;;;;;;;;;;;;;;;13.72;100.00;99086.91;4954881;28;19950;-66
2021/10/15 01:13:55;;;;;;;;;;;;;;;14.08;100.00;99083.59;4932350;28;19926;-66
2021/10/15 01:16:28;;;;;;;;;;;;;;;13.58;100.00;99079.72;4938791;28;19919;-66
2021/10/15 01:18:55;;;;;;;;;;;;;;;13.73;100.00;99072.19;4985790;28;20025;-66
2021/10/15 01:21:20;;;;;;;;;;;;;;;13.37;100.00;99073.72;4947799;28;20462;-66
2021/10/15 01:23:46;;;;;;;;;;;;;;;13.11;100.00;99064.47;4993860;28;19941;-66
2021/10/15 01:26:11;;;;;;;;;;;;;;;13.13;100.00;99072.13;5010196;28;19914;-66
2021/10/15 01:28:37;;;;;;;;;;;;;;;13.10;100.00;99061.94;4993741;28;19968;-66
2021/10/15 01:31:02;;;;;;;;;;;;;;;13.35;100.00;99066.94;5009848;28;19918;-65
2021/10/15 01:33:28;;;;;;;;;;;;;;;13.26;100.00;99055.22;5009967;28;20013;-66
2021/10/15 01:35:53;;;;;;;;;;;;;;;13.30;100.00;99049.03;5009753;28;19996;-66
2021/10/15 01:38:19;;;;;;;;;;;;;;;13.49;100.00;99053.41;5010020;28;20564;-66
2021/10/15 01:40:44;;;;;;;;;;;;;;;12.93;100.00;99050.53;5009744;28;19913;-65
2021/10/15 01:43:23;;;;;;;;;;;;;;;13.22;100.00;99045.06;4999073;28;19914;-65
2021/10/15 01:45:49;;;;;;;;;;;;;;;13.35;100.00;99043.66;4913833;28;19965;-65
2021/10/15 01:48:14;;;;;;;;;;;;;;;13.24;100.00;99043.25;4913740;29;19915;-65
2021/10/15 01:50:40;;;;;;;;;;;;;;;13.31;100.00;99024.84;4898015;29;19916;-66
2021/10/15 01:53:05;;;;;;;;;;;;;;;13.02;100.00;99033.78;4913701;29;19923;-65
2021/10/15 01:55:31;;;;;;;;;;;;;;;13.00;100.00;99030.44;4913680;28;19922;-65
2021/10/15 01:57:56;;;;;;;;;;;;;;;13.10;100.00;99025.72;4914005;29;19941;-65
2021/10/15 02:00:21;;;;;;;;;;;;;;;13.08;100.00;99027.53;4897825;29;19915;-65
2021/10/15 02:02:47;;;;;;;;;;;;;;;13.25;100.00;99024.22;4913361;29;19919;-65
2021/10/15 02:05:13;;;;;;;;;;;;;;;13.41;100.00;99022.72;4897533;28;19915;-65
2021/10/15 02:07:39;;;;;;;;;;;;;;;13.45;100.00;99015.66;4913219;29;19926;-65
2021/10/15 02:10:05;;;;;;;;;;;;;;;12.79;100.00;99006.31;4913573;29;20292;-65
2021/10/15 02:12:30;;;;;;;;;;;;;;;12.88;100.00;99005.09;4897753;29;19915;-65
2021/10/15 02:14:56;;;;;;;;;;;;;;;13.20;100.00;99001.16;4928422;28;19919;-64
2021/10/15 02:17:21;;;;;;;;;;;;;;;12.78;100.00;99009.81;4944953;28;20342;-64
2021/10/15 02:19:46;;;;;;;;;;;;;;;13.07;100.00;99016.34;4897383;29;20018;-63
2021/10/15 02:22:12;;;;;;;;;;;;;;;13.16;100.00;99003.03;4934054;28;19925;-63
2021/10/15 02:24:37;;;;;;;;;;;;;;;12.92;100.00;99007.47;4935324;28;19915;-64
2021/10/15 02:27:02;;;;;;;;;;;;;;;13.11;100.00;99004.13;4941762;28;19947;-63
2021/10/15 02:29:28;;;;;;;;;;;;;;;12.47;100.00;99000.69;4933697;28;20008;-63
2021/10/15 02:31:53;;;;;;;;;;;;;;;12.96;100.00;99003.03;4929742;28;19931;-63
2021/10/15 02:34:21;;;;;;;;;;;;;;;12.86;100.00;98999.97;4929097;28;20431;-63
2021/10/15 02:36:46;;;;;;;;;;;;;;;13.12;100.00;99004.06;4932689;28;20381;-63
2021/10/15 02:39:12;;;;;;;;;;;;;;;13.04;100.00;99000.13;4900866;28;19926;-63
2021/10/15 02:41:37;;;;;;;;;;;;;;;13.17;100.00;98996.13;4986145;28;20034;-66
2021/10/15 02:44:06;;;;;;;;;;;;;;;13.22;100.00;98994.16;4937330;28;19968;-66
2021/10/15 02:46:32;;;;;;;;;;;;;;;13.28;100.00;98998.28;4952661;28;19930;-66
2021/10/15 02:48:57;;;;;;;;;;;;;;;13.38;100.00;98987.44;4946567;28;19917;-66
2021/10/15 02:51:23;;;;;;;;;;;;;;;13.07;100.00;98984.47;4937700;28;19973;-67
2021/10/15 02:53:48;;;;;;;;;;;;;;;13.28;100.00;98985.34;4940889;28;19915;-67
2021/10/15 02:56:14;;;;;;;;;;;;;;;13.25;100.00;98975.94;4934607;28;20375;-64
2021/10/15 02:58:39;;;;;;;;;;;;;;;13.09;100.00;98962.84;4952367;28;20392;-64
2021/10/15 03:01:04;;;;;;;;;;;;;;;13.02;100.00;98973.50;4950960;28;19919;-64
2021/10/15 03:03:30;;;;;;;;;;;;;;;13.12;100.00;98964.44;4954586;28;20022;-63
2021/10/15 03:05:55;;;;;;;;;;;;;;;13.07;100.00;98958.63;4937871;28;19934;-64
2021/10/15 03:08:21;;;;;;;;;;;;;;;13.23;100.00;98959.66;4947768;28;20298;-64
2021/10/15 03:10:46;;;;;;;;;;;;;;;13.08;100.00;98958.56;4907727;28;19936;-64
2021/10/15 03:13:11;;;;;;;;;;;;;;;12.84;100.00;98951.84;4956641;28;19919;-64
2021/10/15 03:15:37;;;;;;;;;;;;;;;12.91;100.00;98951.53;4945883;28;19926;-63
2021/10/15 03:18:02;;;;;;;;;;;;;;;12.40;100.00;98946.78;4937178;28;19915;-64
2021/10/15 03:20:28;;;;;;;;;;;;;;;12.55;100.00;98957.31;4941724;28;19998;-66
2021/10/15 03:22:53;;;;;;;;;;;;;;;13.11;100.00;98948.09;4935410;28;19930;-65
2021/10/15 03:25:18;;;;;;;;;;;;;;;13.01;100.00;98953.72;4923375;28;19941;-67
2021/10/15 03:27:44;;;;;;;;;;;;;;;12.82;100.00;98949.34;4934312;28;19922;-67
2021/10/15 03:30:09;;;;;;;;;;;;;;;12.85;100.00;98938.88;4944050;28;19913;-64
2021/10/15 03:32:35;;;;;;;;;;;;;;;12.71;100.00;98942.03;4968364;28;19962;-64
2021/10/15 03:35:00;;;;;;;;;;;;;;;12.86;100.00;98945.69;4963147;28;19935;-66
2021/10/15 03:37:26;;;;;;;;;;;;;;;12.52;100.00;98935.94;5011339;28;19914;-65
2021/10/15 03:39:51;;;;;;;;;;;;;;;12.73;100.00;98934.22;5005554;28;19913;-63
2021/10/15 03:42:17;;;;;;;;;;;;;;;13.24;100.00;98930.28;4933064;28;19926;-63
2021/10/15 03:44:42;;;;;;;;;;;;;;;13.13;100.00;98932.50;4930221;28;19920;-62
2021/10/15 03:47:07;;;;;;;;;;;;;;;12.94;100.00;98925.53;4896831;29;20005;-63
2021/10/15 03:49:33;;;;;;;;;;;;;;;12.96;100.00;98935.84;4940773;28;19928;-63
2021/10/15 03:51:58;;;;;;;;;;;;;;;13.25;100.00;98929.41;4938115;28;19916;-63
2021/10/15 03:54:23;;;;;;;;;;;;;;;12.96;100.00;98923.75;4942815;28;20393;-62
2021/10/15 03:56:49;;;;;;;;;;;;;;;12.77;100.00;98933.16;4917046;28;19961;-65
2021/10/15 03:59:14;;;;;;;;;;;;;;;12.62;100.00;98931.25;4911949;29;20043;-65
2021/10/15 04:01:40;;;;;;;;;;;;;;;12.63;100.00;98922.56;4911759;29;20348;-65
2021/10/15 04:04:05;;;;;;;;;;;;;;;12.59;100.00;98926.19;4911931;29;19977;-65
2021/10/15 04:06:30;;;;;;;;;;;;;;;12.73;100.00;98921.31;4911642;29;20476;-65
2021/10/15 04:08:56;;;;;;;;;;;;;;;12.84;100.00;98908.78;4896198;29;19923;-65
2021/10/15 04:11:21;;;;;;;;;;;;;;;12.50;100.00;98912.75;4918438;28;19999;-66
2021/10/15 04:13:47;;;;;;;;;;;;;;;12.85;100.00;98902.69;4935679;28;19922;-65
2021/10/15 04:16:12;;;;;;;;;;;;;;;13.12;100.00;98899.81;4939610;28;19921;-65
2021/10/15 04:18:37;;;;;;;;;;;;;;;12.92;100.00;98891.16;4936395;28;20278;-66
2021/10/15 04:21:03;;;;;;;;;;;;;;;12.79;100.00;98897.75;4932662;28;19929;-67
2021/10/15 04:23:28;;;;;;;;;;;;;;;13.05;100.00;98888.06;4898007;28;19926;-66
2021/10/15 04:25:54;;;;;;;;;;;;;;;13.22;100.00;98887.31;4994582;28;20322;-66
2021/10/15 04:28:19;;;;;;;;;;;;;;;13.04;100.00;98892.38;4901741;28;19925;-66
2021/10/15 04:30:45;;;;;;;;;;;;;;;13.03;100.00;98884.72;4944045;28;19934;-63
2021/10/15 04:33:11;;;;;;;;;;;;;;;13.02;100.00;98877.84;4966018;28;19915;-66
2021/10/15 04:35:36;;;;;;;;;;;;;;;12.97;100.00;98871.13;4931521;28;19937;-66
2021/10/15 04:38:02;;;;;;;;;;;;;;;12.97;100.00;98860.78;4919709;28;20326;-66
2021/10/15 04:40:27;;;;;;;;;;;;;;;12.94;100.00;98866.09;4931233;28;19969;-66
2021/10/15 04:42:53;;;;;;;;;;;;;;;12.93;100.00;98869.59;4931664;28;20381;-66
2021/10/15 04:45:18;;;;;;;;;;;;;;;12.86;100.00;98875.91;4939128;28;20274;-63
2021/10/15 04:47:43;;;;;;;;;;;;;;;12.63;100.00;98870.91;4948797;28;19940;-64
2021/10/15 04:50:10;;;;;;;;;;;;;;;12.83;100.00;98867.47;4956227;28;19968;-66
2021/10/15 04:52:35;;;;;;;;;;;;;;;12.86;100.00;98863.00;4999276;28;19923;-67
2021/10/15 04:55:01;;;;;;;;;;;;;;;12.95;100.00;98861.75;4988130;28;19923;-67
2021/10/15 04:57:27;;;;;;;;;;;;;;;13.03;100.00;98861.44;4931596;28;20014;-67
2021/10/15 04:59:52;;;;;;;;;;;;;;;12.54;100.00;98864.38;4941270;28;19977;-67
2021/10/15 05:02:18;;;;;;;;;;;;;;;12.71;100.00;98861.94;4941275;28;19917;-67
2021/10/15 05:04:43;;;;;;;;;;;;;;;12.73;100.00;98856.72;4899245;28;20017;-67
2021/10/15 05:07:08;;;;;;;;;;;;;;;12.73;100.00;98851.53;4938578;28;19977;-67
2021/10/15 05:09:35;;;;;;;;;;;;;;;12.80;100.00;98852.94;4905452;28;19932;-67
2021/10/15 05:12:01;;;;;;;;;;;;;;;12.53;100.00;98850.63;4946537;28;19966;-67
2021/10/15 05:14:27;;;;;;;;;;;;;;;12.63;100.00;98842.50;4938583;28;20010;-67
2021/10/15 05:16:52;;;;;;;;;;;;;;;12.40;100.00;98846.88;4922289;28;19994;-68
2021/10/15 05:19:19;;;;;;;;;;;;;;;12.32;100.00;98851.53;4921376;28;19965;-67
2021/10/15 05:21:45;;;;;;;;;;;;;;;12.57;100.00;98846.19;4908473;28;19921;-68
2021/10/15 05:24:10;;;;;;;;;;;;;;;12.64;100.00;98846.75;4942495;28;20407;-67
2021/10/15 05:26:36;;;;;;;;;;;;;;;12.42;100.00;98839.91;4938476;28;19984;-67
2021/10/15 05:29:01;;;;;;;;;;;;;;;12.48;100.00;98837.06;4933481;28;19910;-68
2021/10/15 05:31:26;;;;;;;;;;;;;;;12.51;100.00;98826.59;4947443;28;19915;-68
2021/10/15 05:33:52;;;;;;;;;;;;;;;12.11;100.00;98833.44;4943089;28;21164;-67
2021/10/15 05:36:17;;;;;;;;;;;;;;;12.43;100.00;98826.09;4904233;28;19926;-67
2021/10/15 05:38:42;;;;;;;;;;;;;;;12.17;100.00;98826.34;4949610;28;20026;-67
2021/10/15 05:41:08;;;;;;;;;;;;;;;12.23;100.00;98826.09;4943798;28;19926;-63
2021/10/15 05:43:33;;;;;;;;;;;;;;;12.03;100.00;98824.34;4949165;28;19918;-64
2021/10/15 05:45:59;;;;;;;;;;;;;;;12.57;100.00;98820.34;4945513;28;19918;-66
2021/10/15 05:48:25;;;;;;;;;;;;;;;12.34;100.00;98821.34;4950855;28;19917;-67
2021/10/15 05:50:50;;;;;;;;;;;;;;;12.47;100.00;98817.31;4954347;28;19981;-67
2021/10/15 05:53:18;;;;;;;;;;;;;;;12.29;100.00;98815.50;4946241;28;20277;-67
2021/10/15 06:01:08;;;;;;;;;;;;;;;12.39;100.00;98814.22;4950615;28;19940;-67
2021/10/15 06:03:34;;;;;;;;;;;;;;;12.44;100.00;98820.03;4945086;28;20420;-68
2021/10/15 06:16:46;;;;;;;;;;;;;;;12.73;100.00;98808.44;5009532;28;19924;-63
2021/10/15 06:19:13;;;;;;;;;;;;;;;12.66;100.00;98806.22;4953698;28;20301;-64
2021/10/15 06:21:38;;;;;;;;;;;;;;;12.50;100.00;98804.28;4906186;28;19981;-64
2021/10/15 06:24:04;;;;;;;;;;;;;;;12.61;100.00;98802.97;4938965;28;20378;-64
2021/10/15 06:26:29;;;;;;;;;;;;;;;12.35;100.00;98799.75;4930434;28;19919;-64
2021/10/15 06:28:55;;;;;;;;;;;;;;;12.07;100.00;98811.25;4935902;28;19919;-63
2021/10/15 06:31:20;;;;;;;;;;;;;;;12.06;100.00;98814.72;4940544;28;19976;-67
2021/10/15 06:33:46;;;;;;;;;;;;;;;12.50;100.00;98812.03;4906162;28;19925;-67
2021/10/15 06:36:12;;;;;;;;;;;;;;;11.94;100.00;98817.81;4930029;28;19922;-64
2021/10/15 06:38:38;;;;;;;;;;;;;;;11.90;100.00;98811.91;4919207;28;19915;-64
2021/10/15 06:41:03;;;;;;;;;;;;;;;12.42;100.00;98816.66;4896837;28;20299;-67
2021/10/15 06:43:29;;;;;;;;;;;;;;;12.21;100.00;98817.59;4943460;28;19919;-67
2021/10/15 06:45:54;;;;;;;;;;;;;;;12.36;100.00;98819.50;4930787;28;19927;-67
2021/10/15 06:48:19;;;;;;;;;;;;;;;12.41;100.00;98824.50;4933750;28;19915;-67
2021/10/15 06:50:45;;;;;;;;;;;;;;;12.62;100.00;98807.25;4932784;28;19937;-67
2021/10/15 06:53:10;;;;;;;;;;;;;;;12.67;100.00;98820.78;4946311;28;20304;-67
2021/10/15 06:55:36;;;;;;;;;;;;;;;12.56;100.00;98824.66;4937846;28;19926;-66
2021/10/15 06:58:02;;;;;;;;;;;;;;;12.51;100.00;98828.34;4932039;29;20388;-66
2021/10/15 07:00:27;;;;;;;;;;;;;;;12.54;100.00;98826.50;4931835;29;19926;-66
2021/10/15 07:02:52;;;;;;;;;;;;;;;12.62;100.00;98827.91;4907240;29;19958;-66
2021/10/15 07:05:18;;;;;;;;;;;;;;;13.06;100.00;98827.69;4911570;28;19931;-66
2021/10/15 07:07:43;;;;;;;;;;;;;;;12.80;100.00;98824.53;4896874;29;19965;-66
2021/10/15 07:10:09;;;;;;;;;;;;;;;13.10;100.00;98824.06;4939337;28;19914;-67
2021/10/15 07:12:38;;;;;;;;;;;;;;;12.50;100.00;98830.09;4950789;28;19941;-66
2021/10/15 07:15:04;;;;;;;;;;;;;;;12.92;100.00;98821.38;4940881;28;19922;-67
2021/10/15 07:17:29;;;;;;;;;;;;;;;13.43;100.00;98815.69;4953516;28;19926;-67
2021/10/15 07:19:55;;;;;;;;;;;;;;;13.08;100.00;98823.28;4904182;28;19964;-67
2021/10/15 07:22:20;;;;;;;;;;;;;;;12.86;100.00;98826.81;4947613;28;20329;-67
2021/10/15 07:24:45;;;;;;;;;;;;;;;12.73;100.00;98843.78;4937936;28;19953;-67
2021/10/15 07:27:11;;;;;;;;;;;;;;;13.25;100.00;98823.38;4930268;28;19957;-67
2021/10/15 07:29:36;;;;;;;;;;;;;;;13.12;100.00;98828.25;4931760;28;19941;-67
2021/10/15 07:32:02;;;;;;;;;;;;;;;12.95;100.00;98834.19;4931441;28;19919;-67
2021/10/15 07:34:28;;;;;;;;;;;;;;;12.92;100.00;98836.06;4922065;28;20021;-67
2021/10/15 07:36:53;;;;;;;;;;;;;;;12.60;100.00;98838.28;4929619;28;20600;-67
2021/10/15 07:39:19;;;;;;;;;;;;;;;12.83;100.00;98839.88;4930986;28;20976;-67
2021/10/15 07:41:45;;;;;;;;;;;;;;;13.00;100.00;98826.22;4905261;28;20407;-67
2021/10/15 07:44:11;;;;;;;;;;;;;;;12.69;100.00;98834.47;4925663;28;19997;-67
2021/10/15 07:46:38;;;;;;;;;;;;;;;12.48;100.00;98857.75;4920818;28;19926;-67
2021/10/15 07:49:04;;;;;;;;;;;;;;;12.79;100.00;98842.66;4909294;29;19919;-67
2021/10/15 07:51:30;;;;;;;;;;;;;;;12.94;100.00;98837.66;4928268;28;20431;-67
2021/10/15 07:53:55;;;;;;;;;;;;;;;12.97;100.00;98845.28;4910496;29;20439;-66
2021/10/15 07:56:21;;;;;;;;;;;;;;;12.95;100.00;98847.13;4910089;28;19923;-66
2021/10/15 07:58:46;;;;;;;;;;;;;;;12.84;100.00;98848.47;4910174;29;19958;-66
2021/10/15 08:01:11;;;;;;;;;;;;;;;12.49;100.00;98862.00;4910591;29;19923;-67
2021/10/15 08:03:37;;;;;;;;;;;;;;;13.16;100.00;98860.00;4917609;28;19930;-67
2021/10/15 08:06:02;;;;;;;;;;;;;;;12.86;100.00;98859.56;4910793;28;20432;-67
2021/10/15 08:08:28;;;;;;;;;;;;;;;13.32;100.00;98861.00;4910635;28;19915;-67
2021/10/15 08:10:53;;;;;;;;;;;;;;;12.89;100.00;98862.88;4909573;29;19926;-67
2021/10/15 08:13:19;;;;;;;;;;;;;;;13.33;100.00;98861.84;4909987;28;19919;-67
2021/10/15 08:15:44;;;;;;;;;;;;;;;13.10;100.00;98855.09;4908376;28;19923;-67
2021/10/15 08:18:10;;;;;;;;;;;;;;;13.00;100.00;98852.06;4914819;28;20381;-67
2021/10/15 08:20:35;;;;;;;;;;;;;;;13.06;100.00;98853.53;4937719;28;19915;-66
2021/10/15 08:23:00;;;;;;;;;;;;;;;12.79;100.00;98859.00;4931429;28;19921;-67
2021/10/15 08:25:26;;;;;;;;;;;;;;;12.89;100.00;98862.88;4925077;28;19926;-67
2021/10/15 08:27:52;;;;;;;;;;;;;;;12.78;100.00;98857.34;4930572;28;20349;-67
2021/10/15 08:30:17;;;;;;;;;;;;;;;12.85;100.00;98852.75;4934667;28;19926;-67
2021/10/15 08:32:43;;;;;;;;;;;;;;;12.66;100.00;98860.47;4938871;28;19917;-67
2021/10/15 08:35:10;;;;;;;;;;;;;;;12.88;100.00;98863.78;4939341;28;20387;-67
2021/10/15 08:37:36;;;;;;;;;;;;;;;13.44;100.00;98838.91;4936331;28;19919;-67
2021/10/15 08:40:01;;;;;;;;;;;;;;;12.96;100.00;98853.94;4927772;28;19919;-67
2021/10/15 08:42:27;;;;;;;;;;;;;;;12.86;100.00;98852.66;4923753;28;19927;-67
2021/10/15 08:44:52;;;;;;;;;;;;;;;13.10;100.00;98857.66;4911813;28;19922;-67
2021/10/15 08:47:18;;;;;;;;;;;;;;;12.76;100.00;98872.91;4910709;28;19974;-68
2021/10/15 08:49:44;;;;;;;;;;;;;;;12.90;100.00;98874.88;4929526;28;19919;-67
2021/10/15 08:52:10;;;;;;;;;;;;;;;13.04;100.00;98870.84;4938024;28;19929;-67
2021/10/15 08:54:38;;;;;;;;;;;;;;;13.05;100.00;98882.91;4949620;28;20006;-67
2021/10/15 08:57:04;;;;;;;;;;;;;;;13.29;100.00;98892.16;4931257;28;20406;-67
2021/10/15 08:59:39;;;;;;;;;;;;;;;13.21;100.00;98886.47;4946365;28;20000;-67
2021/10/15 09:02:10;;;;;;;;;;;;;;;13.33;100.00;98878.19;4949202;28;19931;-67
2021/10/15 09:04:46;;;;;;;;;;;;;;;13.02;100.00;98894.19;4940120;28;19919;-67
2021/10/15 09:07:12;;;;;;;;;;;;;;;12.67;100.00;98903.47;4933556;28;19978;-67
2021/10/15 09:09:38;;;;;;;;;;;;;;;12.99;100.00;98912.41;4942840;28;20006;-67
2021/10/15 09:12:07;;;;;;;;;;;;;;;12.75;100.00;98927.25;4944607;28;19923;-67
2021/10/15 09:14:35;;;;;;;;;;;;;;;12.38;100.00;98951.97;4944171;28;20339;-67
2021/10/15 09:17:09;;;;;;;;;;;;;;;12.80;100.00;98953.72;4935442;28;19961;-67
2021/10/15 09:19:34;;;;;;;;;;;;;;;12.40;100.00;98947.59;4938288;28;19922;-67
2021/10/15 09:22:10;;;;;;;;;;;;;;;12.65;100.00;98967.28;4936168;28;20007;-67
2021/10/15 09:24:48;;;;;;;;;;;;;;;12.59;100.00;98972.69;4933763;28;19921;-67
2021/10/15 09:27:19;;;;;;;;;;;;;;;12.53;100.00;98981.53;4936071;28;20020;-67
2021/10/15 09:29:46;;;;;;;;;;;;;;;11.77;100.00;99018.84;4940268;28;20009;-67
2021/10/15 09:32:12;;;;;;;;;;;;;;;11.60;100.00;99048.66;4946705;28;19950;-67
2021/10/15 09:34:37;;;;;;;;;;;;;;;11.57;100.00;99064.25;4946170;28;19962;-67
2021/10/15 09:37:09;;;;;;;;;;;;;;;11.45;100.00;99080.16;4943806;28;19919;-67
2021/10/15 09:39:35;;;;;;;;;;;;;;;11.72;100.00;99094.69;4940115;28;20882;-67
2021/10/15 09:42:01;;;;;;;;;;;;;;;11.73;100.00;99106.66;4942256;28;19929;-63
2021/10/15 09:44:32;;;;;;;;;;;;;;;11.52;100.00;99110.00;4938445;28;20307;-64
2021/10/15 09:47:16;;;;;;;;;;;;;;;11.66;100.00;99115.53;4939731;28;20370;-64
2021/10/15 09:49:46;;;;;;;;;;;;;;;11.59;100.00;99126.13;4934078;28;19956;-64
2021/10/15 09:52:11;;;;;;;;;;;;;;;11.68;100.00;99136.13;4960269;28;19917;-64
2021/10/15 09:54:38;;;;;;;;;;;;;;;11.67;100.00;99137.84;4925231;28;20407;-64
2021/10/15 09:57:04;;;;;;;;;;;;;;;11.55;100.00;99148.59;4946006;28;19913;-68
2021/10/15 09:59:42;;;;;;;;;;;;;;;11.43;100.00;99156.75;4936534;28;19915;-67
2021/10/15 10:02:07;;;;;;;;;;;;;;;11.43;100.00;99164.47;4922435;28;20338;-67
2021/10/15 10:04:33;;;;;;;;;;;;;;;11.41;100.00;99176.56;4908567;28;19915;-67
2021/10/15 10:06:59;;;;;;;;;;;;;;;11.40;100.00;99187.75;4960026;28;19921;-67
2021/10/15 10:09:24;;;;;;;;;;;;;;;11.67;100.00;99194.59;4957936;28;20682;-67
2021/10/15 10:11:49;;;;;;;;;;;;;;;11.65;100.00;99200.69;4938281;28;20380;-67
2021/10/15 10:14:16;;;;;;;;;;;;;;;11.80;100.00;99192.44;4942418;28;19919;-67
2021/10/15 10:16:44;;;;;;;;;;;;;;;11.90;100.00;99187.84;4948748;28;19954;-67
2021/10/15 10:19:09;;;;;;;;;;;;;;;12.13;100.00;99182.75;4944357;28;19925;-66
2021/10/15 10:21:37;;;;;;;;;;;;;;;11.89;100.00;99173.28;4933731;28;20368;-66
2021/10/15 10:24:07;;;;;;;;;;;;;;;12.00;100.00;99178.91;4924244;28;19918;-67
2021/10/15 10:26:46;;;;;;;;;;;;;;;12.17;100.00;99188.63;4948168;28;19971;-66
2021/10/15 10:29:12;;;;;;;;;;;;;;;12.31;100.00;99186.38;4948921;28;19922;-66
2021/10/15 10:31:37;;;;;;;;;;;;;;;12.26;100.00;99192.63;4900529;28;19921;-66
2021/10/15 10:34:04;;;;;;;;;;;;;;;12.52;100.00;99202.88;4944143;28;19976;-67
2021/10/15 10:36:30;;;;;;;;;;;;;;;12.33;100.00;99196.66;4884616;29;19919;-67
2021/10/15 10:38:56;;;;;;;;;;;;;;;12.30;100.00;99207.13;4894383;29;19922;-67
2021/10/15 10:41:24;;;;;;;;;;;;;;;12.53;100.00;99207.13;4895869;29;19926;-66
2021/10/15 10:43:53;;;;;;;;;;;;;;;12.70;100.00;99209.09;4935093;28;19931;-66
2021/10/15 10:46:22;;;;;;;;;;;;;;;12.43;100.00;99204.91;4934340;28;19915;-67
2021/10/15 10:48:51;;;;;;;;;;;;;;;12.66;100.00;99211.84;4994569;28;20453;-65
2021/10/15 10:51:16;;;;;;;;;;;;;;;12.66;100.00;99206.69;4920137;28;19922;-66
2021/10/15 10:54:00;;;;;;;;;;;;;;;13.09;100.00;99199.84;4935108;28;20332;-66
2021/10/15 10:56:38;;;;;;;;;;;;;;;13.07;100.00;99201.66;4940930;28;19917;-68
2021/10/15 10:59:15;;;;;;;;;;;;;;;13.21;100.00;99194.22;4937564;28;20415;-67
2021/10/15 11:01:47;;;;;;;;;;;;;;;13.23;100.00;99187.25;4935476;28;19923;-68
2021/10/15 11:04:24;;;;;;;;;;;;;;;13.08;100.00;99191.25;4933228;28;19922;-67
2021/10/15 11:06:57;;;;;;;;;;;;;;;13.00;100.00;99187.28;4941820;28;19927;-66
2021/10/15 11:09:35;;;;;;;;;;;;;;;13.20;100.00;99171.81;4949116;28;19969;-67
2021/10/15 11:12:01;;;;;;;;;;;;;;;12.85;100.00;99176.63;4930539;28;20020;-67
2021/10/15 11:14:45;;;;;;;;;;;;;;;13.00;100.00;99195.03;4929362;28;20092;-63
2021/10/15 11:17:11;;;;;;;;;;;;;;;12.98;100.00;99192.53;4938804;28;20350;-64
2021/10/15 11:19:37;;;;;;;;;;;;;;;12.87;100.00;99177.44;4932830;28;19957;-63
2021/10/15 11:22:02;;;;;;;;;;;;;;;12.72;100.00;99181.41;4940056;28;19927;-67
2021/10/15 11:24:28;;;;;;;;;;;;;;;12.34;100.00;99190.63;4932526;28;19957;-67
2021/10/15 11:26:55;;;;;;;;;;;;;;;12.70;100.00;99200.47;4935155;28;19918;-67
2021/10/15 11:29:20;;;;;;;;;;;;;;;12.89;100.00;99198.06;4942670;28;19941;-66
2021/10/15 11:31:53;;;;;;;;;;;;;;;12.71;100.00;99197.84;4949193;28;19923;-66
2021/10/15 11:34:19;;;;;;;;;;;;;;;12.27;100.00;99207.19;4969452;28;19962;-66
2021/10/15 11:36:44;;;;;;;;;;;;;;;12.43;100.00;99217.81;4949213;28;19965;-66
2021/10/15 11:39:09;;;;;;;;;;;;;;;12.70;100.00;99203.06;4945102;28;20966;-66
2021/10/15 11:41:48;;;;;;;;;;;;;;;12.32;100.00;99176.91;4952658;28;19927;-66
2021/10/15 11:44:13;;;;;;;;;;;;;;;11.72;100.00;99172.09;4933931;28;20028;-66
2021/10/15 11:46:39;;;;;;;;;;;;;;;11.98;100.00;99177.28;4902546;28;20396;-62
2021/10/15 11:49:04;;;;;;;;;;;;;;;12.32;100.00;99166.59;4955104;28;19941;-64
2021/10/15 11:51:30;;;;;;;;;;;;;;;12.62;100.00;99168.94;4954207;28;20016;-63
2021/10/15 11:53:56;;;;;;;;;;;;;;;12.64;100.00;99164.56;4956165;28;19914;-64
2021/10/15 11:56:23;;;;;;;;;;;;;;;12.80;100.00;99157.91;4970476;28;19966;-63
2021/10/15 11:58:49;;;;;;;;;;;;;;;12.70;100.00;99156.53;4965095;28;19922;-63
2021/10/15 12:01:22;;;;;;;;;;;;;;;13.00;100.00;99166.59;4951987;28;19927;-64
2021/10/15 12:03:50;;;;;;;;;;;;;;;12.58;100.00;99164.78;4943982;28;19958;-64
2021/10/15 12:06:15;;;;;;;;;;;;;;;12.89;100.00;99156.69;4954958;28;20379;-64
2021/10/15 12:08:41;;;;;;;;;;;;;;;13.64;100.00;99153.69;4953795;28;19966;-64
2021/10/15 12:11:10;;;;;;;;;;;;;;;13.21;100.00;99150.25;4951990;28;19917;-64
2021/10/15 12:13:36;;;;;;;;;;;;;;;12.46;100.00;99166.91;4957178;28;19922;-66
2021/10/15 12:16:05;;;;;;;;;;;;;;;12.65;100.00;99176.56;4940337;28;19918;-66
2021/10/15 12:18:31;;;;;;;;;;;;;;;12.79;100.00;99163.94;4906806;28;19919;-64
2021/10/15 12:21:14;;;;;;;;;;;;;;;13.23;100.00;99169.13;4937888;28;20630;-64
2021/10/15 12:23:51;;;;;;;;;;;;;;;13.19;100.00;99159.81;4935735;28;19977;-64
2021/10/15 12:26:20;;;;;;;;;;;;;;;13.60;100.00;99159.91;4945066;28;20150;-64
2021/10/15 12:28:45;;;;;;;;;;;;;;;14.77;100.00;99152.16;4943424;28;19919;-64
2021/10/15 12:31:24;;;;;;;;;;;;;;;14.32;100.00;99153.31;4942295;28;19924;-64
2021/10/15 12:34:03;;;;;;;;;;;;;;;13.59;100.00;99147.84;4935068;28;20025;-64
2021/10/15 12:36:29;;;;;;;;;;;;;;;13.16;100.00;99144.44;4936759;28;19915;-64
2021/10/15 12:39:13;;;;;;;;;;;;;;;13.52;100.00;99139.50;4938240;28;19916;-64
2021/10/15 12:41:40;;;;;;;;;;;;;;;14.42;100.00;99141.66;4937119;28;19926;-67
2021/10/15 12:44:21;;;;;;;;;;;;;;;13.99;100.00;99146.16;4906732;28;20885;-67
2021/10/15 12:46:57;;;;;;;;;;;;;;;14.17;100.00;99142.75;4932485;28;19962;-67
2021/10/15 12:49:22;;;;;;;;;;;;;;;14.07;100.00;99132.84;4933185;28;20407;-68